sensor_id;sensor_type;location;lat;lon;timestamp;P1;durP1;ratioP1;P2;durP2;ratioP2
76259;SDS011;65076;52.362;6.588;2023-02-28T00:01:47;4.65;;;2.40;;
76259;SDS011;65076;52.362;6.588;2023-02-28T00:04:16;4.53;;;2.40;;
76259;SDS011;65076;52.362;6.588;2023-02-28T00:06:44;4.10;;;2.30;;
76259;SDS011;65076;52.362;6.588;2023-02-28T00:09:12;6.97;;;2.80;;
76259;SDS011;65076;52.362;6.588;2023-02-28T00:11:40;3.78;;;2.25;;
76259;SDS011;65076;52.362;6.588;2023-02-28T00:14:08;5.30;;;2.40;;
76259;SDS011;65076;52.362;6.588;2023-02-28T00:16:36;3.03;;;2.30;;
76259;SDS011;65076;52.362;6.588;2023-02-28T00:19:04;3.47;;;2.42;;
76259;SDS011;65076;52.362;6.588;2023-02-28T00:21:33;5.88;;;2.70;;
76259;SDS011;65076;52.362;6.588;2023-02-28T00:24:01;4.30;;;2.40;;
76259;SDS011;65076;52.362;6.588;2023-02-28T00:26:30;4.05;;;2.60;;
76259;SDS011;65076;52.362;6.588;2023-02-28T00:28:58;5.80;;;2.40;;
76259;SDS011;65076;52.362;6.588;2023-02-28T00:31:26;6.78;;;2.88;;
76259;SDS011;65076;52.362;6.588;2023-02-28T00:33:55;4.22;;;2.50;;
76259;SDS011;65076;52.362;6.588;2023-02-28T00:36:23;3.53;;;2.38;;
76259;SDS011;65076;52.362;6.588;2023-02-28T00:38:52;7.05;;;3.10;;
76259;SDS011;65076;52.362;6.588;2023-02-28T00:41:20;4.88;;;2.47;;
76259;SDS011;65076;52.362;6.588;2023-02-28T00:43:48;4.95;;;2.33;;
76259;SDS011;65076;52.362;6.588;2023-02-28T00:46:16;3.85;;;2.65;;
76259;SDS011;65076;52.362;6.588;2023-02-28T00:48:44;4.95;;;2.90;;
76259;SDS011;65076;52.362;6.588;2023-02-28T00:51:12;5.90;;;2.55;;
76259;SDS011;65076;52.362;6.588;2023-02-28T00:53:40;4.57;;;2.42;;
76259;SDS011;65076;52.362;6.588;2023-02-28T00:56:10;4.35;;;2.33;;
76259;SDS011;65076;52.362;6.588;2023-02-28T00:58:38;3.97;;;2.20;;
76259;SDS011;65076;52.362;6.588;2023-02-28T01:01:06;4.78;;;2.60;;
76259;SDS011;65076;52.362;6.588;2023-02-28T01:03:34;3.70;;;2.50;;
76259;SDS011;65076;52.362;6.588;2023-02-28T01:06:03;4.93;;;2.47;;
76259;SDS011;65076;52.362;6.588;2023-02-28T01:08:31;8.70;;;2.92;;
76259;SDS011;65076;52.362;6.588;2023-02-28T01:11:06;4.53;;;2.47;;
76259;SDS011;65076;52.362;6.588;2023-02-28T01:13:38;6.22;;;3.05;;
76259;SDS011;65076;52.362;6.588;2023-02-28T01:16:09;6.35;;;3.67;;
76259;SDS011;65076;52.362;6.588;2023-02-28T01:18:37;5.15;;;2.92;;
76259;SDS011;65076;52.362;6.588;2023-02-28T01:21:10;7.28;;;3.60;;
76259;SDS011;65076;52.362;6.588;2023-02-28T01:23:41;8.93;;;4.15;;
76259;SDS011;65076;52.362;6.588;2023-02-28T01:26:12;6.82;;;3.22;;
76259;SDS011;65076;52.362;6.588;2023-02-28T01:28:44;6.35;;;3.38;;
76259;SDS011;65076;52.362;6.588;2023-02-28T01:31:13;5.38;;;3.45;;
76259;SDS011;65076;52.362;6.588;2023-02-28T01:33:41;5.75;;;2.85;;
76259;SDS011;65076;52.362;6.588;2023-02-28T01:36:10;5.10;;;2.67;;
76259;SDS011;65076;52.362;6.588;2023-02-28T01:38:40;5.15;;;2.90;;
76259;SDS011;65076;52.362;6.588;2023-02-28T01:41:12;7.72;;;3.47;;
76259;SDS011;65076;52.362;6.588;2023-02-28T01:47:10;3.70;;;2.30;;
76259;SDS011;65076;52.362;6.588;2023-02-28T01:49:38;5.25;;;2.78;;
76259;SDS011;65076;52.362;6.588;2023-02-28T01:52:07;3.95;;;2.50;;
76259;SDS011;65076;52.362;6.588;2023-02-28T01:54:41;5.35;;;2.53;;
76259;SDS011;65076;52.362;6.588;2023-02-28T01:57:11;4.88;;;2.50;;
76259;SDS011;65076;52.362;6.588;2023-02-28T01:59:45;6.65;;;2.53;;
76259;SDS011;65076;52.362;6.588;2023-02-28T02:02:20;6.55;;;2.55;;
76259;SDS011;65076;52.362;6.588;2023-02-28T02:04:51;6.18;;;2.47;;
76259;SDS011;65076;52.362;6.588;2023-02-28T02:07:29;3.58;;;2.40;;
76259;SDS011;65076;52.362;6.588;2023-02-28T02:10:05;5.95;;;2.58;;
76259;SDS011;65076;52.362;6.588;2023-02-28T02:15:49;5.82;;;2.50;;
76259;SDS011;65076;52.362;6.588;2023-02-28T02:18:41;4.55;;;2.92;;
76259;SDS011;65076;52.362;6.588;2023-02-28T02:21:25;3.67;;;2.70;;
76259;SDS011;65076;52.362;6.588;2023-02-28T02:28:03;6.03;;;2.90;;
76259;SDS011;65076;52.362;6.588;2023-02-28T02:37:28;4.65;;;2.80;;
76259;SDS011;65076;52.362;6.588;2023-02-28T02:40:09;6.72;;;3.28;;
76259;SDS011;65076;52.362;6.588;2023-02-28T02:42:45;4.57;;;2.80;;
76259;SDS011;65076;52.362;6.588;2023-02-28T02:45:24;5.43;;;3.05;;
76259;SDS011;65076;52.362;6.588;2023-02-28T02:48:02;3.58;;;2.42;;
76259;SDS011;65076;52.362;6.588;2023-02-28T02:50:38;4.15;;;2.95;;
76259;SDS011;65076;52.362;6.588;2023-02-28T02:53:10;4.00;;;2.65;;
76259;SDS011;65076;52.362;6.588;2023-02-28T02:55:45;4.22;;;2.78;;
76259;SDS011;65076;52.362;6.588;2023-02-28T02:58:22;3.28;;;2.53;;
76259;SDS011;65076;52.362;6.588;2023-02-28T03:00:59;4.80;;;2.50;;
76259;SDS011;65076;52.362;6.588;2023-02-28T03:03:31;6.35;;;2.97;;
76259;SDS011;65076;52.362;6.588;2023-02-28T03:06:03;6.70;;;2.85;;
76259;SDS011;65076;52.362;6.588;2023-02-28T03:08:34;4.90;;;2.70;;
76259;SDS011;65076;52.362;6.588;2023-02-28T03:11:05;4.50;;;2.75;;
76259;SDS011;65076;52.362;6.588;2023-02-28T03:13:54;4.10;;;2.97;;
76259;SDS011;65076;52.362;6.588;2023-02-28T03:16:50;3.88;;;2.65;;
76259;SDS011;65076;52.362;6.588;2023-02-28T03:19:52;5.20;;;2.65;;
76259;SDS011;65076;52.362;6.588;2023-02-28T03:25:31;4.60;;;2.58;;
76259;SDS011;65076;52.362;6.588;2023-02-28T03:28:09;4.88;;;2.33;;
76259;SDS011;65076;52.362;6.588;2023-02-28T03:30:50;3.30;;;2.50;;
76259;SDS011;65076;52.362;6.588;2023-02-28T03:33:26;3.75;;;2.63;;
76259;SDS011;65076;52.362;6.588;2023-02-28T03:36:01;4.88;;;2.72;;
76259;SDS011;65076;52.362;6.588;2023-02-28T03:38:38;3.65;;;2.65;;
76259;SDS011;65076;52.362;6.588;2023-02-28T03:41:14;4.88;;;3.15;;
76259;SDS011;65076;52.362;6.588;2023-02-28T03:43:49;3.17;;;2.50;;
76259;SDS011;65076;52.362;6.588;2023-02-28T03:46:28;4.20;;;2.78;;
76259;SDS011;65076;52.362;6.588;2023-02-28T03:49:01;4.63;;;2.85;;
76259;SDS011;65076;52.362;6.588;2023-02-28T03:51:39;4.60;;;2.88;;
76259;SDS011;65076;52.362;6.588;2023-02-28T03:54:13;5.03;;;2.90;;
76259;SDS011;65076;52.362;6.588;2023-02-28T03:56:59;5.15;;;3.00;;
76259;SDS011;65076;52.362;6.588;2023-02-28T04:02:06;2.75;;;2.45;;
76259;SDS011;65076;52.362;6.588;2023-02-28T04:04:35;5.75;;;2.88;;
76259;SDS011;65076;52.362;6.588;2023-02-28T04:07:04;4.40;;;2.85;;
76259;SDS011;65076;52.362;6.588;2023-02-28T04:09:36;4.32;;;2.50;;
76259;SDS011;65076;52.362;6.588;2023-02-28T04:12:08;6.15;;;2.55;;
76259;SDS011;65076;52.362;6.588;2023-02-28T04:14:36;4.65;;;2.78;;
76259;SDS011;65076;52.362;6.588;2023-02-28T04:17:04;6.05;;;3.45;;
76259;SDS011;65076;52.362;6.588;2023-02-28T04:19:32;5.28;;;3.38;;
76259;SDS011;65076;52.362;6.588;2023-02-28T04:22:00;6.35;;;2.78;;
76259;SDS011;65076;52.362;6.588;2023-02-28T04:24:28;5.80;;;3.22;;
76259;SDS011;65076;52.362;6.588;2023-02-28T04:26:57;7.00;;;3.03;;
76259;SDS011;65076;52.362;6.588;2023-02-28T04:29:26;4.53;;;2.97;;
76259;SDS011;65076;52.362;6.588;2023-02-28T04:31:57;5.45;;;2.95;;
76259;SDS011;65076;52.362;6.588;2023-02-28T04:34:27;3.60;;;2.63;;
76259;SDS011;65076;52.362;6.588;2023-02-28T04:36:57;5.18;;;3.00;;
76259;SDS011;65076;52.362;6.588;2023-02-28T04:39:42;4.15;;;2.80;;
76259;SDS011;65076;52.362;6.588;2023-02-28T04:42:12;4.55;;;3.22;;
76259;SDS011;65076;52.362;6.588;2023-02-28T04:44:40;4.68;;;3.03;;
76259;SDS011;65076;52.362;6.588;2023-02-28T04:47:08;3.45;;;2.72;;
76259;SDS011;65076;52.362;6.588;2023-02-28T04:49:36;5.65;;;2.65;;
76259;SDS011;65076;52.362;6.588;2023-02-28T04:52:04;4.07;;;2.90;;
76259;SDS011;65076;52.362;6.588;2023-02-28T04:54:33;6.78;;;3.08;;
76259;SDS011;65076;52.362;6.588;2023-02-28T04:57:01;3.78;;;2.70;;
76259;SDS011;65076;52.362;6.588;2023-02-28T04:59:31;4.07;;;3.03;;
76259;SDS011;65076;52.362;6.588;2023-02-28T05:02:00;6.95;;;3.25;;
76259;SDS011;65076;52.362;6.588;2023-02-28T05:04:32;3.92;;;2.65;;
76259;SDS011;65076;52.362;6.588;2023-02-28T05:07:01;4.03;;;2.53;;
76259;SDS011;65076;52.362;6.588;2023-02-28T05:09:30;4.15;;;2.85;;
76259;SDS011;65076;52.362;6.588;2023-02-28T05:11:59;4.68;;;2.88;;
76259;SDS011;65076;52.362;6.588;2023-02-28T05:14:27;5.45;;;3.28;;
76259;SDS011;65076;52.362;6.588;2023-02-28T05:16:56;5.85;;;3.40;;
76259;SDS011;65076;52.362;6.588;2023-02-28T05:19:24;4.28;;;3.22;;
76259;SDS011;65076;52.362;6.588;2023-02-28T05:21:53;4.95;;;3.28;;
76259;SDS011;65076;52.362;6.588;2023-02-28T05:24:22;4.70;;;3.05;;
76259;SDS011;65076;52.362;6.588;2023-02-28T05:26:51;5.75;;;3.17;;
76259;SDS011;65076;52.362;6.588;2023-02-28T05:29:21;3.53;;;3.10;;
76259;SDS011;65076;52.362;6.588;2023-02-28T05:31:49;5.15;;;3.45;;
76259;SDS011;65076;52.362;6.588;2023-02-28T05:34:19;4.20;;;2.95;;
76259;SDS011;65076;52.362;6.588;2023-02-28T05:36:48;3.53;;;2.90;;
76259;SDS011;65076;52.362;6.588;2023-02-28T05:39:16;3.80;;;2.90;;
76259;SDS011;65076;52.362;6.588;2023-02-28T05:41:44;6.80;;;3.38;;
76259;SDS011;65076;52.362;6.588;2023-02-28T05:44:12;4.43;;;3.45;;
76259;SDS011;65076;52.362;6.588;2023-02-28T05:46:40;7.90;;;4.03;;
76259;SDS011;65076;52.362;6.588;2023-02-28T05:49:08;7.90;;;4.32;;
76259;SDS011;65076;52.362;6.588;2023-02-28T05:51:37;7.05;;;3.58;;
76259;SDS011;65076;52.362;6.588;2023-02-28T05:54:06;5.90;;;3.13;;
76259;SDS011;65076;52.362;6.588;2023-02-28T05:56:34;6.68;;;3.45;;
76259;SDS011;65076;52.362;6.588;2023-02-28T05:59:05;6.05;;;3.65;;
76259;SDS011;65076;52.362;6.588;2023-02-28T06:01:33;4.07;;;3.15;;
76259;SDS011;65076;52.362;6.588;2023-02-28T06:04:05;5.30;;;3.33;;
76259;SDS011;65076;52.362;6.588;2023-02-28T06:06:46;4.93;;;3.10;;
76259;SDS011;65076;52.362;6.588;2023-02-28T06:09:15;6.10;;;3.10;;
76259;SDS011;65076;52.362;6.588;2023-02-28T06:11:43;5.28;;;3.17;;
76259;SDS011;65076;52.362;6.588;2023-02-28T06:14:12;7.55;;;3.53;;
76259;SDS011;65076;52.362;6.588;2023-02-28T06:16:43;7.25;;;3.75;;
76259;SDS011;65076;52.362;6.588;2023-02-28T06:19:11;4.18;;;3.65;;
76259;SDS011;65076;52.362;6.588;2023-02-28T06:21:41;5.28;;;3.40;;
76259;SDS011;65076;52.362;6.588;2023-02-28T06:24:10;4.75;;;3.70;;
76259;SDS011;65076;52.362;6.588;2023-02-28T06:26:38;7.07;;;3.47;;
76259;SDS011;65076;52.362;6.588;2023-02-28T06:29:06;11.65;;;3.70;;
76259;SDS011;65076;52.362;6.588;2023-02-28T06:31:34;5.38;;;3.40;;
76259;SDS011;65076;52.362;6.588;2023-02-28T06:34:03;9.43;;;4.03;;
76259;SDS011;65076;52.362;6.588;2023-02-28T06:36:32;7.22;;;4.55;;
76259;SDS011;65076;52.362;6.588;2023-02-28T06:39:00;6.40;;;3.80;;
76259;SDS011;65076;52.362;6.588;2023-02-28T06:41:29;8.80;;;4.15;;
76259;SDS011;65076;52.362;6.588;2023-02-28T06:44:17;6.32;;;3.90;;
76259;SDS011;65076;52.362;6.588;2023-02-28T06:46:45;5.75;;;3.72;;
76259;SDS011;65076;52.362;6.588;2023-02-28T06:49:14;6.68;;;3.80;;
76259;SDS011;65076;52.362;6.588;2023-02-28T06:51:43;5.28;;;3.47;;
76259;SDS011;65076;52.362;6.588;2023-02-28T06:54:12;6.57;;;3.58;;
76259;SDS011;65076;52.362;6.588;2023-02-28T06:56:42;6.28;;;3.67;;
76259;SDS011;65076;52.362;6.588;2023-02-28T06:59:10;5.82;;;3.42;;
76259;SDS011;65076;52.362;6.588;2023-02-28T07:01:39;5.43;;;3.50;;
76259;SDS011;65076;52.362;6.588;2023-02-28T07:04:07;8.60;;;3.95;;
76259;SDS011;65076;52.362;6.588;2023-02-28T07:06:35;4.88;;;3.38;;
76259;SDS011;65076;52.362;6.588;2023-02-28T07:09:07;4.72;;;3.50;;
76259;SDS011;65076;52.362;6.588;2023-02-28T07:11:36;6.97;;;3.47;;
76259;SDS011;65076;52.362;6.588;2023-02-28T07:14:10;6.88;;;3.65;;
76259;SDS011;65076;52.362;6.588;2023-02-28T07:16:38;6.15;;;3.70;;
76259;SDS011;65076;52.362;6.588;2023-02-28T07:21:40;6.15;;;3.75;;
76259;SDS011;65076;52.362;6.588;2023-02-28T07:24:08;6.13;;;3.60;;
76259;SDS011;65076;52.362;6.588;2023-02-28T07:26:36;7.32;;;3.50;;
76259;SDS011;65076;52.362;6.588;2023-02-28T07:29:06;4.05;;;3.03;;
76259;SDS011;65076;52.362;6.588;2023-02-28T07:31:35;6.18;;;3.70;;
76259;SDS011;65076;52.362;6.588;2023-02-28T07:34:03;5.40;;;3.58;;
76259;SDS011;65076;52.362;6.588;2023-02-28T07:36:32;4.57;;;2.83;;
76259;SDS011;65076;52.362;6.588;2023-02-28T07:39:00;4.45;;;3.33;;
76259;SDS011;65076;52.362;6.588;2023-02-28T07:41:30;4.05;;;2.47;;
76259;SDS011;65076;52.362;6.588;2023-02-28T07:44:00;5.53;;;2.85;;
76259;SDS011;65076;52.362;6.588;2023-02-28T07:46:29;4.60;;;3.17;;
76259;SDS011;65076;52.362;6.588;2023-02-28T07:49:03;4.78;;;2.85;;
76259;SDS011;65076;52.362;6.588;2023-02-28T07:51:32;3.92;;;3.15;;
76259;SDS011;65076;52.362;6.588;2023-02-28T07:54:00;3.25;;;2.47;;
76259;SDS011;65076;52.362;6.588;2023-02-28T07:56:28;4.18;;;2.75;;
76259;SDS011;65076;52.362;6.588;2023-02-28T07:58:57;2.83;;;2.38;;
76259;SDS011;65076;52.362;6.588;2023-02-28T08:01:25;5.40;;;2.33;;
76259;SDS011;65076;52.362;6.588;2023-02-28T08:03:54;2.60;;;2.20;;
76259;SDS011;65076;52.362;6.588;2023-02-28T08:06:24;3.00;;;2.13;;
76259;SDS011;65076;52.362;6.588;2023-02-28T08:08:53;6.78;;;2.35;;
76259;SDS011;65076;52.362;6.588;2023-02-28T08:11:22;3.97;;;1.88;;
76259;SDS011;65076;52.362;6.588;2023-02-28T08:13:52;2.78;;;2.00;;
76259;SDS011;65076;52.362;6.588;2023-02-28T08:16:20;3.13;;;1.92;;
76259;SDS011;65076;52.362;6.588;2023-02-28T08:18:49;2.45;;;1.58;;
76259;SDS011;65076;52.362;6.588;2023-02-28T08:21:18;3.50;;;1.45;;
76259;SDS011;65076;52.362;6.588;2023-02-28T08:23:48;2.15;;;1.52;;
76259;SDS011;65076;52.362;6.588;2023-02-28T08:26:18;2.75;;;1.70;;
76259;SDS011;65076;52.362;6.588;2023-02-28T08:28:46;2.95;;;2.00;;
76259;SDS011;65076;52.362;6.588;2023-02-28T08:31:15;2.47;;;1.38;;
76259;SDS011;65076;52.362;6.588;2023-02-28T08:33:44;1.40;;;0.88;;
76259;SDS011;65076;52.362;6.588;2023-02-28T08:36:14;2.28;;;1.05;;
76259;SDS011;65076;52.362;6.588;2023-02-28T08:38:43;1.08;;;0.70;;
76259;SDS011;65076;52.362;6.588;2023-02-28T08:41:13;2.60;;;1.38;;
76259;SDS011;65076;52.362;6.588;2023-02-28T08:43:41;5.13;;;1.50;;
76259;SDS011;65076;52.362;6.588;2023-02-28T08:46:10;1.67;;;1.00;;
76259;SDS011;65076;52.362;6.588;2023-02-28T08:48:41;2.92;;;1.15;;
76259;SDS011;65076;52.362;6.588;2023-02-28T08:51:10;1.67;;;1.00;;
76259;SDS011;65076;52.362;6.588;2023-02-28T08:53:42;2.53;;;1.30;;
76259;SDS011;65076;52.362;6.588;2023-02-28T08:56:10;3.63;;;1.35;;
76259;SDS011;65076;52.362;6.588;2023-02-28T08:58:42;3.03;;;1.20;;
76259;SDS011;65076;52.362;6.588;2023-02-28T09:01:13;2.75;;;1.42;;
76259;SDS011;65076;52.362;6.588;2023-02-28T09:03:44;2.22;;;1.00;;
76259;SDS011;65076;52.362;6.588;2023-02-28T09:06:14;3.38;;;1.35;;
76259;SDS011;65076;52.362;6.588;2023-02-28T09:08:46;1.77;;;1.08;;
76259;SDS011;65076;52.362;6.588;2023-02-28T09:11:16;2.38;;;1.30;;
76259;SDS011;65076;52.362;6.588;2023-02-28T09:13:45;1.42;;;1.00;;
76259;SDS011;65076;52.362;6.588;2023-02-28T09:16:14;1.15;;;0.88;;
76259;SDS011;65076;52.362;6.588;2023-02-28T09:18:43;2.15;;;0.70;;
76259;SDS011;65076;52.362;6.588;2023-02-28T09:21:12;2.17;;;0.70;;
76259;SDS011;65076;52.362;6.588;2023-02-28T09:23:43;2.03;;;0.60;;
76259;SDS011;65076;52.362;6.588;2023-02-28T09:26:13;1.30;;;0.60;;
76259;SDS011;65076;52.362;6.588;2023-02-28T09:28:45;3.08;;;0.90;;
76259;SDS011;65076;52.362;6.588;2023-02-28T09:31:14;1.77;;;0.80;;
76259;SDS011;65076;52.362;6.588;2023-02-28T09:33:47;1.50;;;0.77;;
76259;SDS011;65076;52.362;6.588;2023-02-28T09:36:16;2.40;;;1.00;;
76259;SDS011;65076;52.362;6.588;2023-02-28T09:38:44;4.20;;;0.73;;
76259;SDS011;65076;52.362;6.588;2023-02-28T09:41:15;2.95;;;0.90;;
76259;SDS011;65076;52.362;6.588;2023-02-28T09:43:48;2.00;;;0.90;;
76259;SDS011;65076;52.362;6.588;2023-02-28T09:46:26;1.90;;;1.02;;
76259;SDS011;65076;52.362;6.588;2023-02-28T09:49:02;1.05;;;0.70;;
76259;SDS011;65076;52.362;6.588;2023-02-28T09:51:37;2.97;;;0.80;;
76259;SDS011;65076;52.362;6.588;2023-02-28T09:54:18;1.35;;;0.90;;
76259;SDS011;65076;52.362;6.588;2023-02-28T09:56:52;1.00;;;0.68;;
76259;SDS011;65076;52.362;6.588;2023-02-28T09:59:32;1.40;;;1.10;;
76259;SDS011;65076;52.362;6.588;2023-02-28T10:02:19;1.70;;;0.77;;
76259;SDS011;65076;52.362;6.588;2023-02-28T10:05:16;1.48;;;0.70;;
76259;SDS011;65076;52.362;6.588;2023-02-28T10:08:00;3.67;;;0.80;;
76259;SDS011;65076;52.362;6.588;2023-02-28T10:10:39;1.38;;;0.90;;
76259;SDS011;65076;52.362;6.588;2023-02-28T10:13:20;1.65;;;0.77;;
76259;SDS011;65076;52.362;6.588;2023-02-28T10:15:55;1.63;;;0.88;;
76259;SDS011;65076;52.362;6.588;2023-02-28T10:18:30;1.67;;;0.63;;
76259;SDS011;65076;52.362;6.588;2023-02-28T10:21:11;2.15;;;0.90;;
76259;SDS011;65076;52.362;6.588;2023-02-28T10:23:48;1.65;;;0.60;;
76259;SDS011;65076;52.362;6.588;2023-02-28T10:26:20;1.77;;;0.70;;
76259;SDS011;65076;52.362;6.588;2023-02-28T10:28:51;3.70;;;1.13;;
76259;SDS011;65076;52.362;6.588;2023-02-28T10:31:20;1.95;;;0.88;;
76259;SDS011;65076;52.362;6.588;2023-02-28T10:33:51;1.23;;;0.85;;
76259;SDS011;65076;52.362;6.588;2023-02-28T10:36:20;1.58;;;0.82;;
76259;SDS011;65076;52.362;6.588;2023-02-28T10:38:49;2.17;;;1.10;;
76259;SDS011;65076;52.362;6.588;2023-02-28T10:41:26;1.23;;;0.73;;
76259;SDS011;65076;52.362;6.588;2023-02-28T10:44:15;2.55;;;0.90;;
76259;SDS011;65076;52.362;6.588;2023-02-28T10:46:48;2.70;;;0.65;;
76259;SDS011;65076;52.362;6.588;2023-02-28T10:49:21;1.88;;;0.98;;
76259;SDS011;65076;52.362;6.588;2023-02-28T10:51:52;1.17;;;0.70;;
76259;SDS011;65076;52.362;6.588;2023-02-28T10:54:24;1.10;;;0.70;;
76259;SDS011;65076;52.362;6.588;2023-02-28T10:57:08;1.92;;;1.30;;
76259;SDS011;65076;52.362;6.588;2023-02-28T10:59:46;1.92;;;1.05;;
76259;SDS011;65076;52.362;6.588;2023-02-28T11:02:31;3.15;;;0.98;;
76259;SDS011;65076;52.362;6.588;2023-02-28T11:05:02;1.38;;;0.88;;
76259;SDS011;65076;52.362;6.588;2023-02-28T11:07:52;1.20;;;0.82;;
76259;SDS011;65076;52.362;6.588;2023-02-28T11:10:23;1.63;;;0.95;;
76259;SDS011;65076;52.362;6.588;2023-02-28T11:15:28;1.98;;;1.00;;
76259;SDS011;65076;52.362;6.588;2023-02-28T11:18:00;1.77;;;1.08;;
76259;SDS011;65076;52.362;6.588;2023-02-28T11:20:47;2.10;;;0.95;;
76259;SDS011;65076;52.362;6.588;2023-02-28T11:23:23;1.83;;;1.10;;
76259;SDS011;65076;52.362;6.588;2023-02-28T11:25:57;1.67;;;1.33;;
76259;SDS011;65076;52.362;6.588;2023-02-28T11:28:29;1.52;;;1.00;;
76259;SDS011;65076;52.362;6.588;2023-02-28T11:31:03;2.90;;;1.30;;
76259;SDS011;65076;52.362;6.588;2023-02-28T11:33:46;2.90;;;1.27;;
76259;SDS011;65076;52.362;6.588;2023-02-28T11:36:18;1.38;;;1.05;;
76259;SDS011;65076;52.362;6.588;2023-02-28T11:38:51;2.03;;;0.85;;
76259;SDS011;65076;52.362;6.588;2023-02-28T11:41:30;2.00;;;1.20;;
76259;SDS011;65076;52.362;6.588;2023-02-28T11:44:28;2.42;;;1.00;;
76259;SDS011;65076;52.362;6.588;2023-02-28T11:47:13;1.83;;;0.90;;
76259;SDS011;65076;52.362;6.588;2023-02-28T11:49:52;2.65;;;1.20;;
76259;SDS011;65076;52.362;6.588;2023-02-28T11:52:43;1.80;;;1.30;;
76259;SDS011;65076;52.362;6.588;2023-02-28T11:55:19;1.73;;;1.10;;
76259;SDS011;65076;52.362;6.588;2023-02-28T12:04:09;2.42;;;1.13;;
76259;SDS011;65076;52.362;6.588;2023-02-28T12:06:53;1.63;;;1.08;;
76259;SDS011;65076;52.362;6.588;2023-02-28T12:09:41;1.02;;;0.90;;
76259;SDS011;65076;52.362;6.588;2023-02-28T12:12:24;3.65;;;1.20;;
76259;SDS011;65076;52.362;6.588;2023-02-28T12:15:14;2.08;;;1.00;;
76259;SDS011;65076;52.362;6.588;2023-02-28T12:17:58;1.42;;;0.90;;
76259;SDS011;65076;52.362;6.588;2023-02-28T12:20:57;1.13;;;1.02;;
76259;SDS011;65076;52.362;6.588;2023-02-28T12:23:42;1.52;;;0.98;;
76259;SDS011;65076;52.362;6.588;2023-02-28T12:26:27;5.85;;;1.20;;
76259;SDS011;65076;52.362;6.588;2023-02-28T12:29:09;3.63;;;1.38;;
76259;SDS011;65076;52.362;6.588;2023-02-28T12:31:46;1.48;;;1.17;;
76259;SDS011;65076;52.362;6.588;2023-02-28T12:34:22;1.17;;;1.00;;
76259;SDS011;65076;52.362;6.588;2023-02-28T12:36:58;0.70;;;0.60;;
76259;SDS011;65076;52.362;6.588;2023-02-28T12:39:35;1.17;;;0.85;;
76259;SDS011;65076;52.362;6.588;2023-02-28T12:42:17;2.10;;;1.13;;
76259;SDS011;65076;52.362;6.588;2023-02-28T12:44:56;2.17;;;1.00;;
76259;SDS011;65076;52.362;6.588;2023-02-28T12:47:29;1.70;;;1.10;;
76259;SDS011;65076;52.362;6.588;2023-02-28T12:50:02;1.65;;;0.90;;
76259;SDS011;65076;52.362;6.588;2023-02-28T12:52:39;2.60;;;1.02;;
76259;SDS011;65076;52.362;6.588;2023-02-28T12:55:19;1.05;;;0.80;;
76259;SDS011;65076;52.362;6.588;2023-02-28T12:58:02;2.95;;;0.88;;
76259;SDS011;65076;52.362;6.588;2023-02-28T13:00:44;2.70;;;1.17;;
76259;SDS011;65076;52.362;6.588;2023-02-28T13:03:44;1.45;;;0.93;;
76259;SDS011;65076;52.362;6.588;2023-02-28T13:06:57;1.42;;;0.70;;
76259;SDS011;65076;52.362;6.588;2023-02-28T13:09:52;1.75;;;0.80;;
76259;SDS011;65076;52.362;6.588;2023-02-28T13:12:23;1.65;;;0.73;;
76259;SDS011;65076;52.362;6.588;2023-02-28T13:15:00;3.20;;;0.77;;
76259;SDS011;65076;52.362;6.588;2023-02-28T13:17:38;1.55;;;1.02;;
76259;SDS011;65076;52.362;6.588;2023-02-28T13:20:14;2.30;;;1.13;;
76259;SDS011;65076;52.362;6.588;2023-02-28T13:22:46;3.13;;;1.10;;
76259;SDS011;65076;52.362;6.588;2023-02-28T13:35:12;1.33;;;0.90;;
76259;SDS011;65076;52.362;6.588;2023-02-28T13:38:21;1.92;;;1.02;;
76259;SDS011;65076;52.362;6.588;2023-02-28T13:44:10;1.67;;;1.35;;
76259;SDS011;65076;52.362;6.588;2023-02-28T13:50:07;1.75;;;1.10;;
76259;SDS011;65076;52.362;6.588;2023-02-28T13:52:50;2.88;;;0.90;;
76259;SDS011;65076;52.362;6.588;2023-02-28T13:55:44;1.45;;;1.02;;
76259;SDS011;65076;52.362;6.588;2023-02-28T13:58:26;1.15;;;0.95;;
76259;SDS011;65076;52.362;6.588;2023-02-28T14:01:15;2.67;;;1.35;;
76259;SDS011;65076;52.362;6.588;2023-02-28T14:07:16;1.92;;;1.10;;
76259;SDS011;65076;52.362;6.588;2023-02-28T14:09:54;1.73;;;1.10;;
76259;SDS011;65076;52.362;6.588;2023-02-28T14:15:36;2.50;;;1.42;;
76259;SDS011;65076;52.362;6.588;2023-02-28T14:18:22;1.42;;;1.15;;
76259;SDS011;65076;52.362;6.588;2023-02-28T14:20:57;2.67;;;1.10;;
76259;SDS011;65076;52.362;6.588;2023-02-28T14:23:41;1.88;;;1.17;;
76259;SDS011;65076;52.362;6.588;2023-02-28T14:26:30;2.50;;;1.20;;
76259;SDS011;65076;52.362;6.588;2023-02-28T14:29:35;2.42;;;1.25;;
76259;SDS011;65076;52.362;6.588;2023-02-28T14:32:35;2.88;;;1.20;;
76259;SDS011;65076;52.362;6.588;2023-02-28T14:35:15;2.30;;;1.02;;
76259;SDS011;65076;52.362;6.588;2023-02-28T14:38:14;1.98;;;1.02;;
76259;SDS011;65076;52.362;6.588;2023-02-28T14:40:49;1.85;;;1.30;;
76259;SDS011;65076;52.362;6.588;2023-02-28T14:43:22;1.42;;;1.33;;
76259;SDS011;65076;52.362;6.588;2023-02-28T14:45:56;1.77;;;1.10;;
76259;SDS011;65076;52.362;6.588;2023-02-28T14:48:29;2.22;;;1.30;;
76259;SDS011;65076;52.362;6.588;2023-02-28T14:50:58;1.50;;;1.10;;
76259;SDS011;65076;52.362;6.588;2023-02-28T14:53:28;2.45;;;1.20;;
76259;SDS011;65076;52.362;6.588;2023-02-28T14:56:02;1.52;;;1.10;;
76259;SDS011;65076;52.362;6.588;2023-02-28T14:58:32;2.13;;;1.10;;
76259;SDS011;65076;52.362;6.588;2023-02-28T15:01:02;1.40;;;1.30;;
76259;SDS011;65076;52.362;6.588;2023-02-28T15:03:33;1.05;;;0.80;;
76259;SDS011;65076;52.362;6.588;2023-02-28T15:06:05;1.95;;;1.20;;
76259;SDS011;65076;52.362;6.588;2023-02-28T15:08:41;1.25;;;1.08;;
76259;SDS011;65076;52.362;6.588;2023-02-28T15:11:12;2.25;;;1.40;;
76259;SDS011;65076;52.362;6.588;2023-02-28T15:13:45;1.13;;;1.02;;
76259;SDS011;65076;52.362;6.588;2023-02-28T15:16:17;1.38;;;0.93;;
76259;SDS011;65076;52.362;6.588;2023-02-28T15:18:51;2.10;;;1.20;;
76259;SDS011;65076;52.362;6.588;2023-02-28T15:21:23;2.88;;;1.25;;
76259;SDS011;65076;52.362;6.588;2023-02-28T15:23:56;2.95;;;0.93;;
76259;SDS011;65076;52.362;6.588;2023-02-28T15:26:32;1.50;;;1.02;;
76259;SDS011;65076;52.362;6.588;2023-02-28T15:29:05;2.00;;;1.40;;
76259;SDS011;65076;52.362;6.588;2023-02-28T15:31:39;1.63;;;1.10;;
76259;SDS011;65076;52.362;6.588;2023-02-28T15:34:26;1.73;;;1.33;;
76259;SDS011;65076;52.362;6.588;2023-02-28T15:40:14;1.40;;;1.13;;
76259;SDS011;65076;52.362;6.588;2023-02-28T15:43:02;2.00;;;1.10;;
76259;SDS011;65076;52.362;6.588;2023-02-28T15:45:34;3.22;;;1.40;;
76259;SDS011;65076;52.362;6.588;2023-02-28T15:48:13;1.65;;;1.20;;
76259;SDS011;65076;52.362;6.588;2023-02-28T15:50:51;2.25;;;0.95;;
76259;SDS011;65076;52.362;6.588;2023-02-28T15:53:23;2.25;;;1.30;;
76259;SDS011;65076;52.362;6.588;2023-02-28T15:55:58;1.40;;;1.00;;
76259;SDS011;65076;52.362;6.588;2023-02-28T15:58:29;1.60;;;1.10;;
76259;SDS011;65076;52.362;6.588;2023-02-28T16:01:16;2.28;;;1.20;;
76259;SDS011;65076;52.362;6.588;2023-02-28T16:03:51;1.92;;;1.00;;
76259;SDS011;65076;52.362;6.588;2023-02-28T16:06:28;2.65;;;1.42;;
76259;SDS011;65076;52.362;6.588;2023-02-28T16:09:05;1.30;;;1.20;;
76259;SDS011;65076;52.362;6.588;2023-02-28T16:11:40;2.03;;;1.10;;
76259;SDS011;65076;52.362;6.588;2023-02-28T16:14:16;1.65;;;1.08;;
76259;SDS011;65076;52.362;6.588;2023-02-28T16:16:50;1.60;;;1.50;;
76259;SDS011;65076;52.362;6.588;2023-02-28T16:19:20;2.65;;;1.20;;
76259;SDS011;65076;52.362;6.588;2023-02-28T16:21:51;1.90;;;1.30;;
76259;SDS011;65076;52.362;6.588;2023-02-28T16:24:19;1.80;;;1.30;;
76259;SDS011;65076;52.362;6.588;2023-02-28T16:26:48;3.25;;;1.50;;
76259;SDS011;65076;52.362;6.588;2023-02-28T16:29:22;2.00;;;1.40;;